createdAt,value
2023-08-24T00:00:48.424Z,99.90
2023-08-24T00:03:35.696Z,99.90
2023-08-24T00:06:05.647Z,99.90
2023-08-24T00:08:32.927Z,99.90
2023-08-24T00:11:00.368Z,99.90
2023-08-24T00:13:27.512Z,99.90
2023-08-24T00:15:57.935Z,99.90
2023-08-24T00:18:26.010Z,99.90
2023-08-24T00:21:02.077Z,99.90
2023-08-24T00:23:31.703Z,99.90
2023-08-24T00:25:59.076Z,99.90
2023-08-24T00:28:28.845Z,99.90
2023-08-24T00:30:56.238Z,99.90
2023-08-24T00:33:23.845Z,99.90
2023-08-24T00:35:51.373Z,99.90
2023-08-24T00:38:18.546Z,99.90
2023-08-24T00:40:46.036Z,99.90
2023-08-24T00:43:15.470Z,99.90
2023-08-24T00:45:43.154Z,99.90
2023-08-24T00:48:12.806Z,99.90
2023-08-24T00:50:42.894Z,99.90
2023-08-24T00:53:11.604Z,99.90
2023-08-24T00:55:42.219Z,99.90
2023-08-24T00:58:09.492Z,99.90
2023-08-24T01:00:37.328Z,99.90
2023-08-24T01:03:05.122Z,99.90
2023-08-24T01:05:34.931Z,99.90
2023-08-24T01:08:02.193Z,99.90
2023-08-24T01:10:56.611Z,99.90
2023-08-24T01:13:38.044Z,99.90
2023-08-24T01:16:13.008Z,99.90
2023-08-24T01:18:41.857Z,99.90
2023-08-24T01:21:09.920Z,99.90
2023-08-24T01:23:55.217Z,99.90
2023-08-24T01:26:22.864Z,99.90
2023-08-24T01:28:50.861Z,99.90
2023-08-24T01:31:23.168Z,99.90
2023-08-24T01:33:50.426Z,99.90
2023-08-24T01:36:17.851Z,99.90
2023-08-24T01:38:51.188Z,99.90
2023-08-24T01:41:29.220Z,99.90
2023-08-24T01:43:58.396Z,99.90
2023-08-24T01:46:29.664Z,99.90
2023-08-24T01:49:02.083Z,99.90
2023-08-24T01:51:29.618Z,99.90
2023-08-24T01:53:57.492Z,99.90
2023-08-24T01:56:24.963Z,99.90
2023-08-24T01:58:54.685Z,99.90
2023-08-24T02:01:24.342Z,99.90
2023-08-24T02:03:55.953Z,99.90
2023-08-24T02:06:23.469Z,99.90
2023-08-24T02:08:53.063Z,99.90
2023-08-24T02:11:20.517Z,99.90
2023-08-24T02:13:50.096Z,99.90
2023-08-24T02:16:17.600Z,99.90
2023-08-24T02:18:47.006Z,99.90
2023-08-24T02:21:16.873Z,99.90
2023-08-24T02:23:43.978Z,99.90
2023-08-24T02:26:11.421Z,99.90
2023-08-24T02:28:39.266Z,99.90
2023-08-24T02:31:09.383Z,99.90
2023-08-24T02:33:37.285Z,99.90
2023-08-24T02:36:04.967Z,99.90
2023-08-24T02:38:34.388Z,99.90
2023-08-24T02:41:06.221Z,99.90
2023-08-24T02:43:36.863Z,99.90
2023-08-24T02:46:09.407Z,99.90
2023-08-24T02:48:38.738Z,99.90
2023-08-24T02:51:11.465Z,99.90
2023-08-24T02:53:38.640Z,99.90
2023-08-24T02:56:08.328Z,99.90
2023-08-24T02:58:35.570Z,99.90
2023-08-24T03:01:06.420Z,99.90
2023-08-24T03:03:33.719Z,99.90
2023-08-24T03:06:05.429Z,99.90
2023-08-24T03:08:33.641Z,99.90
2023-08-24T03:11:02.004Z,99.90
2023-08-24T03:13:29.995Z,99.90
2023-08-24T03:15:57.907Z,99.90
2023-08-24T03:18:25.146Z,99.90
2023-08-24T03:20:52.573Z,99.90
2023-08-24T03:23:19.793Z,99.90
2023-08-24T03:25:47.230Z,99.90
2023-08-24T03:28:16.681Z,99.90
2023-08-24T03:30:49.277Z,99.90
2023-08-24T03:33:16.621Z,99.90
2023-08-24T03:35:45.017Z,99.90
2023-08-24T03:38:14.867Z,99.90
2023-08-24T03:40:42.436Z,99.90
2023-08-24T03:43:12.494Z,99.90
2023-08-24T03:45:43.442Z,99.90
2023-08-24T03:48:12.561Z,99.90
2023-08-24T03:50:39.992Z,99.90
2023-08-24T03:53:07.765Z,99.90
2023-08-24T03:55:35.213Z,99.90
2023-08-24T03:58:17.360Z,99.90
2023-08-24T04:00:49.273Z,99.90
2023-08-24T04:03:16.582Z,99.90
2023-08-24T04:05:44.116Z,99.90
2023-08-24T04:08:11.289Z,99.90
2023-08-24T04:10:38.922Z,99.90
2023-08-24T04:13:06.073Z,99.90
2023-08-24T04:15:33.508Z,99.90
2023-08-24T04:18:00.731Z,99.90
2023-08-24T04:20:28.164Z,99.90
2023-08-24T04:22:57.410Z,99.90
2023-08-24T04:25:25.013Z,99.90
2023-08-24T04:27:52.586Z,99.90
2023-08-24T04:30:25.697Z,99.90
2023-08-24T04:32:52.849Z,99.90
2023-08-24T04:35:20.370Z,99.90
2023-08-24T04:37:49.784Z,99.90
2023-08-24T04:40:19.616Z,99.90
2023-08-24T04:42:51.483Z,99.90
2023-08-24T04:45:21.147Z,99.90
2023-08-24T04:47:51.056Z,99.90
2023-08-24T04:50:18.702Z,99.90
2023-08-24T04:52:45.751Z,99.90
2023-08-24T04:55:17.956Z,99.90
2023-08-24T04:57:48.813Z,99.90
2023-08-24T05:00:17.154Z,99.90
2023-08-24T05:02:44.464Z,99.90
2023-08-24T05:05:16.611Z,99.90
2023-08-24T05:07:45.932Z,99.90
2023-08-24T05:10:13.457Z,99.90
2023-08-24T05:12:42.704Z,99.90
2023-08-24T05:15:11.906Z,99.90
2023-08-24T05:17:39.085Z,99.90
2023-08-24T05:20:07.918Z,99.90
2023-08-24T05:22:35.410Z,98.50
2023-08-24T05:25:02.984Z,95.20
2023-08-24T05:27:30.183Z,92.00
2023-08-24T05:29:57.683Z,89.20
2023-08-24T05:32:27.594Z,83.70
2023-08-24T05:34:55.016Z,79.50
2023-08-24T05:37:24.850Z,76.20
2023-08-24T05:39:54.709Z,73.30
2023-08-24T05:42:21.826Z,70.30
2023-08-24T05:44:49.239Z,67.70
2023-08-24T05:47:16.353Z,65.60
2023-08-24T05:49:48.327Z,63.20
2023-08-24T05:52:17.664Z,61.30
2023-08-24T05:54:47.518Z,60.10
2023-08-24T05:57:19.790Z,58.60
2023-08-24T05:59:49.592Z,57.10
2023-08-24T06:02:19.848Z,56.10
2023-08-24T06:04:49.610Z,54.70
2023-08-24T06:07:17.646Z,53.50
2023-08-24T06:09:47.632Z,53.20
2023-08-24T06:12:14.762Z,52.40
2023-08-24T06:14:45.363Z,51.40
2023-08-24T06:17:12.509Z,50.30
2023-08-24T06:19:39.938Z,50.20
2023-08-24T06:22:07.089Z,49.00
2023-08-24T06:24:34.600Z,48.10
2023-08-24T06:27:01.700Z,48.40
2023-08-24T06:29:30.279Z,47.30
2023-08-24T06:31:57.718Z,47.30
2023-08-24T06:34:25.171Z,46.00
2023-08-24T06:36:54.419Z,45.40
2023-08-24T06:39:24.148Z,45.40
2023-08-24T06:41:53.527Z,45.00
2023-08-24T06:44:21.073Z,44.10
2023-08-24T06:46:48.212Z,43.10
2023-08-24T06:49:15.670Z,42.50
2023-08-24T06:51:45.262Z,42.20
2023-08-24T06:54:15.236Z,41.50
2023-08-24T06:56:44.846Z,40.70
2023-08-24T06:59:12.470Z,41.20
2023-08-24T07:01:39.797Z,40.90
2023-08-24T07:04:07.348Z,41.60
2023-08-24T07:06:35.306Z,41.10
2023-08-24T07:09:02.845Z,39.20
2023-08-24T07:11:29.962Z,39.20
2023-08-24T07:13:59.562Z,38.10
2023-08-24T07:16:35.149Z,37.60
2023-08-24T07:19:02.595Z,38.40
2023-08-24T07:21:32.166Z,38.60
2023-08-24T07:24:02.238Z,38.00
2023-08-24T07:26:29.415Z,36.80
2023-08-24T07:28:59.266Z,36.90
2023-08-24T07:31:26.777Z,36.30
2023-08-24T07:33:56.572Z,37.80
2023-08-24T07:36:23.857Z,40.60
2023-08-24T07:38:51.370Z,43.90
2023-08-24T07:41:18.561Z,44.90
2023-08-24T07:43:48.566Z,46.50
2023-08-24T07:46:17.885Z,48.60
2023-08-24T07:48:47.784Z,49.70
2023-08-24T07:51:14.931Z,50.80
2023-08-24T07:53:42.323Z,51.40
2023-08-24T07:56:16.988Z,52.30
2023-08-24T07:58:44.534Z,52.80
2023-08-24T08:01:14.537Z,53.80
2023-08-24T08:03:44.275Z,54.10
2023-08-24T08:06:11.460Z,54.90
2023-08-24T08:08:38.933Z,54.00
2023-08-24T08:11:06.171Z,54.50
2023-08-24T08:13:33.561Z,54.40
2023-08-24T08:16:08.275Z,54.50
2023-08-24T08:18:37.158Z,56.50
2023-08-24T08:21:19.736Z,57.40
2023-08-24T08:23:49.290Z,56.20
2023-08-24T08:26:17.745Z,55.90
2023-08-24T08:28:47.614Z,56.60
2023-08-24T08:31:21.091Z,57.30
2023-08-24T08:33:52.427Z,56.90
2023-08-24T08:36:24.070Z,58.20
2023-08-24T08:38:51.514Z,56.70
2023-08-24T08:41:22.461Z,56.90
2023-08-24T08:43:50.261Z,57.10
2023-08-24T08:46:17.539Z,58.30
2023-08-24T08:48:49.942Z,57.10
2023-08-24T08:51:18.372Z,57.30
2023-08-24T08:53:45.850Z,57.50
2023-08-24T08:56:15.539Z,58.80
2023-08-24T08:58:45.184Z,58.00
2023-08-24T09:01:15.511Z,57.60
2023-08-24T09:03:44.048Z,58.70
2023-08-24T09:06:13.697Z,59.00
2023-08-24T09:08:41.242Z,58.50
2023-08-24T09:11:09.490Z,59.20
2023-08-24T09:13:37.171Z,58.20
2023-08-24T09:16:07.215Z,59.20
2023-08-24T09:18:39.375Z,59.80
2023-08-24T09:21:11.782Z,60.30
2023-08-24T09:23:52.995Z,58.90
2023-08-24T09:26:30.302Z,59.10
2023-08-24T09:28:58.574Z,58.40
2023-08-24T09:31:38.947Z,59.60
2023-08-24T09:34:06.994Z,58.50
2023-08-24T09:36:39.552Z,59.20
2023-08-24T09:39:07.360Z,59.80
2023-08-24T09:41:48.194Z,60.90
2023-08-24T09:44:17.987Z,58.40
2023-08-24T09:46:45.388Z,58.00
2023-08-24T09:49:14.872Z,59.00
2023-08-24T09:51:45.461Z,59.40
2023-08-24T09:54:13.103Z,58.90
2023-08-24T09:56:43.821Z,58.30
2023-08-24T09:59:16.234Z,58.50
2023-08-24T10:01:44.854Z,58.20
2023-08-24T10:04:34.852Z,58.10
2023-08-24T10:07:09.591Z,59.30
2023-08-24T10:09:43.644Z,59.00
2023-08-24T10:12:12.170Z,59.20
2023-08-24T10:14:56.030Z,62.30
2023-08-24T10:17:27.288Z,64.00
2023-08-24T10:19:59.184Z,63.10
2023-08-24T10:22:26.483Z,62.80
2023-08-24T10:25:01.068Z,63.00
2023-08-24T10:27:29.963Z,64.20
2023-08-24T10:30:00.392Z,65.00
2023-08-24T10:32:28.780Z,67.50
2023-08-24T10:34:56.387Z,67.60
2023-08-24T10:37:29.261Z,66.50
2023-08-24T10:39:57.020Z,64.60
2023-08-24T10:42:26.494Z,67.20
2023-08-24T10:44:54.130Z,67.80
2023-08-24T10:47:22.506Z,66.50
2023-08-24T10:49:56.102Z,67.10
2023-08-24T10:52:44.974Z,69.40
2023-08-24T10:55:26.794Z,66.50
2023-08-24T10:58:00.875Z,67.80
2023-08-24T11:00:30.203Z,66.60
2023-08-24T11:03:00.884Z,66.70
2023-08-24T11:05:31.072Z,69.00
2023-08-24T11:08:08.097Z,66.30
2023-08-24T11:10:44.658Z,67.00
2023-08-24T11:13:13.301Z,67.20
2023-08-24T11:15:51.953Z,64.30
2023-08-24T11:18:28.363Z,64.00
2023-08-24T11:20:56.957Z,63.00
2023-08-24T11:23:25.355Z,65.00
2023-08-24T11:25:56.838Z,65.50
2023-08-24T11:28:25.620Z,68.00
2023-08-24T11:30:53.786Z,65.60
2023-08-24T11:33:34.998Z,64.90
2023-08-24T11:36:05.048Z,65.00
2023-08-24T11:38:43.615Z,65.00
2023-08-24T11:41:15.132Z,64.60
2023-08-24T11:43:43.657Z,64.90
2023-08-24T11:46:18.478Z,61.40
2023-08-24T11:48:51.059Z,62.20
2023-08-24T11:51:26.258Z,63.70
2023-08-24T11:54:03.548Z,62.90
2023-08-24T11:56:30.932Z,63.40
2023-08-24T11:58:58.106Z,63.20
2023-08-24T12:01:26.120Z,62.70
2023-08-24T12:03:53.740Z,62.10
2023-08-24T12:06:21.259Z,64.30
2023-08-24T12:08:48.842Z,64.20
2023-08-24T12:11:21.049Z,64.00
2023-08-24T12:13:50.685Z,64.30
2023-08-24T12:16:22.202Z,64.80
2023-08-24T12:18:52.067Z,65.20
2023-08-24T12:21:19.836Z,66.10
2023-08-24T12:24:00.124Z,66.20
2023-08-24T12:26:29.905Z,66.00
2023-08-24T12:29:01.607Z,66.50
2023-08-24T12:31:32.415Z,67.20
2023-08-24T12:34:09.573Z,66.20
2023-08-24T12:36:40.098Z,64.90
2023-08-24T12:39:07.591Z,64.90
2023-08-24T12:41:35.104Z,66.20
2023-08-24T12:44:02.330Z,66.10
2023-08-24T12:46:29.961Z,67.30
2023-08-24T12:48:59.738Z,67.30
2023-08-24T12:51:29.507Z,66.50
2023-08-24T12:53:59.137Z,66.30
2023-08-24T12:56:26.824Z,66.50
2023-08-24T12:58:53.963Z,66.10
2023-08-24T13:01:21.463Z,65.70
2023-08-24T13:03:48.756Z,65.60
2023-08-24T13:06:24.294Z,66.10
2023-08-24T13:08:56.406Z,66.70
2023-08-24T13:11:28.805Z,66.80
2023-08-24T13:13:55.886Z,68.10
2023-08-24T13:16:27.850Z,67.60
2023-08-24T13:18:57.088Z,66.30
2023-08-24T13:21:26.138Z,66.90
2023-08-24T13:23:55.809Z,67.60
2023-08-24T13:26:23.874Z,67.60
2023-08-24T13:28:53.433Z,67.30
2023-08-24T13:31:21.016Z,67.50
2023-08-24T13:33:48.202Z,67.60
2023-08-24T13:36:17.986Z,66.80
2023-08-24T13:38:45.541Z,68.50
2023-08-24T13:41:15.528Z,69.00
2023-08-24T13:43:42.638Z,68.90
2023-08-24T13:46:10.302Z,69.50
2023-08-24T13:48:39.772Z,70.20
2023-08-24T13:51:09.658Z,67.10
2023-08-24T13:53:37.015Z,67.40
2023-08-24T13:56:04.808Z,67.00
2023-08-24T13:58:32.132Z,66.70
2023-08-24T14:01:06.789Z,67.20
2023-08-24T14:03:36.441Z,68.90
2023-08-24T14:06:04.150Z,67.70
2023-08-24T14:08:31.326Z,67.30
2023-08-24T14:10:58.717Z,68.00
2023-08-24T14:13:25.866Z,68.40
2023-08-24T14:15:53.706Z,68.60
2023-08-24T14:18:21.511Z,68.90
2023-08-24T14:20:50.021Z,69.30
2023-08-24T14:23:19.745Z,68.50
2023-08-24T14:25:47.959Z,69.00
2023-08-24T14:28:20.209Z,69.00
2023-08-24T14:30:47.553Z,70.40
2023-08-24T14:33:14.885Z,69.80
2023-08-24T14:35:42.314Z,69.70
2023-08-24T14:38:09.517Z,70.40
2023-08-24T14:40:41.588Z,71.50
2023-08-24T14:43:08.630Z,70.80
2023-08-24T14:45:38.694Z,70.90
2023-08-24T14:48:06.396Z,70.40
2023-08-24T14:50:33.897Z,71.20
2023-08-24T14:53:03.310Z,71.00
2023-08-24T14:55:30.747Z,71.70
2023-08-24T14:57:57.899Z,71.00
2023-08-24T15:00:25.406Z,71.30
2023-08-24T15:02:52.624Z,72.20
2023-08-24T15:05:21.604Z,73.20
2023-08-24T15:07:51.486Z,72.20
2023-08-24T15:10:21.500Z,73.00
2023-08-24T15:12:54.749Z,72.30
2023-08-24T15:15:22.277Z,73.20
2023-08-24T15:17:50.621Z,72.90
2023-08-24T15:20:18.950Z,73.30
2023-08-24T15:22:49.070Z,72.90
2023-08-24T15:25:16.500Z,73.10
2023-08-24T15:27:46.103Z,73.90
2023-08-24T15:30:13.931Z,73.90
2023-08-24T15:32:45.649Z,74.60
2023-08-24T15:35:13.118Z,74.20
2023-08-24T15:37:43.051Z,74.80
2023-08-24T15:40:11.399Z,75.20
2023-08-24T15:42:38.527Z,75.20
2023-08-24T15:45:06.352Z,76.30
2023-08-24T15:47:33.513Z,76.30
2023-08-24T15:50:03.484Z,77.20
2023-08-24T15:52:30.839Z,77.60
2023-08-24T15:55:00.758Z,77.90
2023-08-24T15:57:30.119Z,78.20
2023-08-24T15:59:57.648Z,79.00
2023-08-24T16:02:24.729Z,79.50
2023-08-24T16:04:56.725Z,80.90
2023-08-24T16:07:24.169Z,80.80
2023-08-24T16:09:51.540Z,79.90
2023-08-24T16:12:20.897Z,80.50
2023-08-24T16:14:48.343Z,79.70
2023-08-24T16:17:15.487Z,80.00
2023-08-24T16:19:45.564Z,79.70
2023-08-24T16:22:12.728Z,79.80
2023-08-24T16:24:40.083Z,80.70
2023-08-24T16:27:07.322Z,81.40
2023-08-24T16:29:34.821Z,82.50
2023-08-24T16:32:01.956Z,82.00
2023-08-24T16:34:29.472Z,82.00
2023-08-24T16:36:59.618Z,82.60
2023-08-24T16:39:30.796Z,82.80
2023-08-24T16:41:58.014Z,82.50
2023-08-24T16:44:25.440Z,82.70
2023-08-24T16:46:54.824Z,83.00
2023-08-24T16:49:24.445Z,83.60
2023-08-24T16:51:51.613Z,84.50
2023-08-24T16:54:22.166Z,85.50
2023-08-24T16:56:49.427Z,85.90
2023-08-24T16:59:16.828Z,87.30
2023-08-24T17:01:43.946Z,89.00
2023-08-24T17:04:11.429Z,89.70
2023-08-24T17:06:39.738Z,90.40
2023-08-24T17:09:09.562Z,90.30
2023-08-24T17:11:36.661Z,90.80
2023-08-24T17:14:04.128Z,91.00
2023-08-24T17:16:33.483Z,91.30
2023-08-24T17:19:03.584Z,91.80
2023-08-24T17:21:33.199Z,91.80
2023-08-24T17:24:00.577Z,92.50
2023-08-24T17:26:27.760Z,91.90
2023-08-24T17:28:55.177Z,92.20
2023-08-24T17:31:22.385Z,92.50
2023-08-24T17:33:52.439Z,93.00
2023-08-24T17:36:19.496Z,93.60
2023-08-24T17:38:59.319Z,94.70
2023-08-24T17:41:37.625Z,95.90
2023-08-24T17:44:05.664Z,97.60
2023-08-24T17:46:36.469Z,99.30
2023-08-24T17:49:03.912Z,99.90
2023-08-24T17:51:31.107Z,99.90
2023-08-24T17:53:58.626Z,99.90
2023-08-24T17:56:26.088Z,99.90
2023-08-24T17:58:57.934Z,99.90
2023-08-24T18:01:25.439Z,99.90
2023-08-24T18:03:52.882Z,99.90
2023-08-24T18:06:20.071Z,99.90
2023-08-24T18:08:51.764Z,99.90
2023-08-24T18:11:19.894Z,99.90
2023-08-24T18:13:47.374Z,99.90
2023-08-24T18:16:14.635Z,99.90
2023-08-24T18:18:42.955Z,99.90
2023-08-24T18:21:10.329Z,99.90
2023-08-24T18:23:40.002Z,99.90
2023-08-24T18:26:07.136Z,99.90
2023-08-24T18:28:34.600Z,99.90
2023-08-24T18:31:01.691Z,99.90
2023-08-24T18:33:29.170Z,99.90
2023-08-24T18:35:56.573Z,99.90
2023-08-24T18:38:24.880Z,99.90
2023-08-24T18:40:55.418Z,99.90
2023-08-24T18:43:23.462Z,99.90
2023-08-24T18:46:05.109Z,99.90
2023-08-24T18:48:32.975Z,99.90
2023-08-24T18:51:00.343Z,99.90
2023-08-24T18:53:32.544Z,99.90
2023-08-24T18:56:05.862Z,99.90
2023-08-24T18:58:50.121Z,99.90
2023-08-24T19:01:17.435Z,99.90
2023-08-24T19:03:45.129Z,99.90
2023-08-24T19:06:24.253Z,99.90
2023-08-24T19:08:55.010Z,99.90
2023-08-24T19:11:22.273Z,99.90
2023-08-24T19:13:49.885Z,99.90
2023-08-24T19:16:19.489Z,99.90
2023-08-24T19:18:49.670Z,99.90
2023-08-24T19:21:16.770Z,99.90
2023-08-24T19:23:44.388Z,99.90
2023-08-24T19:26:11.702Z,99.90
2023-08-24T19:28:41.324Z,99.90
2023-08-24T19:31:15.061Z,99.90
2023-08-24T19:33:42.650Z,99.90
2023-08-24T19:36:11.946Z,99.90
2023-08-24T19:38:39.407Z,99.90
2023-08-24T19:41:06.540Z,99.90
2023-08-24T19:43:34.085Z,99.90
2023-08-24T19:46:03.476Z,99.90
2023-08-24T19:48:33.400Z,99.90
2023-08-24T19:51:02.726Z,99.90
2023-08-24T19:53:32.396Z,99.90
2023-08-24T19:55:59.542Z,99.90
2023-08-24T19:58:29.592Z,99.90
2023-08-24T20:00:57.137Z,99.90
2023-08-24T20:03:24.796Z,99.90
2023-08-24T20:05:55.655Z,99.90
2023-08-24T20:08:24.348Z,99.90
2023-08-24T20:10:51.900Z,99.90
2023-08-24T20:13:19.508Z,99.90
2023-08-24T20:15:49.209Z,99.90
2023-08-24T20:18:19.611Z,99.90
2023-08-24T20:20:49.062Z,99.90
2023-08-24T20:23:18.750Z,99.90
2023-08-24T20:25:45.866Z,99.90
2023-08-24T20:28:13.488Z,99.90
2023-08-24T20:30:41.847Z,99.90
2023-08-24T20:33:09.343Z,99.90
2023-08-24T20:35:39.017Z,99.90
2023-08-24T20:38:06.482Z,99.90
2023-08-24T20:40:35.894Z,99.90
2023-08-24T20:43:05.618Z,99.90
2023-08-24T20:45:32.804Z,99.90
2023-08-24T20:48:00.291Z,99.90
2023-08-24T20:50:27.566Z,99.90
2023-08-24T20:52:54.930Z,99.90
2023-08-24T20:55:22.033Z,99.90
2023-08-24T20:57:52.186Z,99.90
2023-08-24T21:00:19.697Z,99.90
2023-08-24T21:02:47.226Z,99.90
2023-08-24T21:05:17.097Z,99.90
2023-08-24T21:07:44.511Z,99.90
2023-08-24T21:10:24.019Z,99.90
2023-08-24T21:12:51.393Z,99.90
2023-08-24T21:15:18.494Z,99.90
2023-08-24T21:17:48.515Z,99.90
2023-08-24T21:20:18.127Z,99.90
2023-08-24T21:22:46.455Z,99.90
2023-08-24T21:25:17.547Z,99.90
2023-08-24T21:27:44.894Z,99.90
2023-08-24T21:30:12.482Z,99.90
2023-08-24T21:33:01.368Z,99.90
2023-08-24T21:35:28.775Z,99.90
2023-08-24T21:37:56.449Z,99.90
2023-08-24T21:40:23.771Z,99.90
2023-08-24T21:42:51.243Z,99.90
2023-08-24T21:45:18.568Z,99.90
2023-08-24T21:47:46.173Z,99.90
2023-08-24T21:50:15.784Z,99.90
2023-08-24T21:52:45.455Z,99.90
2023-08-24T21:55:14.955Z,99.90
2023-08-24T21:57:44.931Z,99.90
2023-08-24T22:00:14.829Z,99.90
2023-08-24T22:02:44.919Z,99.90
2023-08-24T22:05:15.365Z,99.90
2023-08-24T22:07:42.880Z,99.90
2023-08-24T22:10:10.369Z,99.90
2023-08-24T22:12:37.535Z,99.90
2023-08-24T22:15:05.508Z,99.90
2023-08-24T22:17:32.690Z,99.90
2023-08-24T22:20:02.859Z,99.90
2023-08-24T22:22:30.336Z,99.90
2023-08-24T22:24:57.719Z,99.90
2023-08-24T22:27:24.844Z,99.90
2023-08-24T22:29:52.337Z,99.90
2023-08-24T22:32:19.488Z,99.90
2023-08-24T22:34:46.860Z,99.90
2023-08-24T22:37:16.636Z,99.90
2023-08-24T22:39:44.020Z,99.90
2023-08-24T22:42:13.399Z,99.90
2023-08-24T22:44:40.914Z,99.90
2023-08-24T22:47:08.056Z,99.90
2023-08-24T22:49:35.429Z,99.90
2023-08-24T22:52:05.038Z,99.90
2023-08-24T22:54:35.677Z,99.90
2023-08-24T22:57:02.831Z,99.90
2023-08-24T22:59:34.707Z,99.90
2023-08-24T23:02:06.325Z,99.90
2023-08-24T23:04:36.318Z,99.90
2023-08-24T23:07:07.074Z,99.90
2023-08-24T23:09:39.873Z,99.90
2023-08-24T23:12:07.226Z,99.90
2023-08-24T23:14:34.633Z,99.90
2023-08-24T23:17:02.516Z,99.90
2023-08-24T23:19:32.537Z,99.90
2023-08-24T23:21:59.618Z,99.90
2023-08-24T23:26:57.167Z,99.90
2023-08-24T23:29:24.736Z,99.90
2023-08-24T23:31:54.418Z,99.90
2023-08-24T23:34:21.846Z,99.90
2023-08-24T23:36:49.053Z,99.90
2023-08-24T23:39:18.911Z,99.90
2023-08-24T23:41:46.110Z,99.90
2023-08-24T23:44:13.483Z,99.90
2023-08-24T23:46:42.868Z,99.90
2023-08-24T23:49:10.272Z,99.90
2023-08-24T23:51:39.638Z,99.90
2023-08-24T23:54:15.107Z,99.90
2023-08-24T23:56:44.850Z,99.90
2023-08-24T23:59:21.250Z,99.90
